createdAt,value
2023-11-09T00:07:31.863Z,98
2023-11-09T00:17:32.098Z,98
2023-11-09T00:27:32.291Z,98
2023-11-09T00:37:32.464Z,98
2023-11-09T00:47:32.758Z,98
2023-11-09T00:57:32.890Z,98
2023-11-09T01:07:33.080Z,98
2023-11-09T01:17:33.288Z,98
2023-11-09T01:27:33.492Z,98
2023-11-09T01:37:33.689Z,98
2023-11-09T01:47:33.968Z,98
2023-11-09T01:57:34.089Z,98
2023-11-09T02:07:34.327Z,98
2023-11-09T02:37:34.903Z,98
2023-11-09T02:57:35.299Z,98
2023-11-09T03:07:35.505Z,98
2023-11-09T03:17:35.720Z,98
2023-11-09T03:47:36.435Z,98
2023-11-09T03:57:36.520Z,98
2023-11-09T04:07:36.764Z,98
2023-11-09T04:17:36.980Z,98
2023-11-09T04:27:37.133Z,98
2023-11-09T04:37:37.361Z,98
2023-11-09T04:47:37.602Z,98
2023-11-09T04:57:37.739Z,98
2023-11-09T05:07:37.972Z,98
2023-11-09T05:17:38.171Z,98
2023-11-09T05:27:38.346Z,98
2023-11-09T05:37:38.581Z,98
2023-11-09T05:47:38.749Z,98
2023-11-09T05:57:38.984Z,98
2023-11-09T06:07:39.198Z,98
2023-11-09T06:17:39.404Z,98
2023-11-09T06:27:39.563Z,98
2023-11-09T06:37:39.789Z,98
2023-11-09T06:47:40.020Z,98
2023-11-09T06:57:40.166Z,98
2023-11-09T07:07:40.415Z,98
2023-11-09T07:37:41.011Z,99
2023-11-09T07:57:41.396Z,99
2023-11-09T08:07:41.617Z,99
2023-11-09T08:17:41.790Z,99
2023-11-09T08:27:41.996Z,99
2023-11-09T08:37:42.221Z,99
2023-11-09T08:47:42.423Z,99
2023-11-09T09:07:42.816Z,98
2023-11-09T09:17:43.046Z,98
2023-11-09T09:27:43.206Z,98
2023-11-09T09:37:43.438Z,98
2023-11-09T09:47:43.615Z,98
2023-11-09T09:57:43.841Z,98
2023-11-09T10:07:44.068Z,97
2023-11-09T10:17:44.294Z,97
2023-11-09T10:27:44.465Z,97
2023-11-09T10:37:44.639Z,96
2023-11-09T10:57:45.015Z,96
2023-11-09T11:17:48.883Z,94
2023-11-09T11:27:45.633Z,94
2023-11-09T11:37:45.872Z,93
2023-11-09T11:57:46.234Z,91
2023-11-09T12:37:47.043Z,85
2023-11-09T13:27:48.056Z,78
2023-11-09T14:17:49.091Z,78
2023-11-09T15:17:50.303Z,80
2023-11-09T15:27:50.483Z,80
2023-11-09T15:37:50.714Z,80
2023-11-09T15:47:50.866Z,80
2023-11-09T15:57:51.068Z,80
2023-11-09T16:07:51.278Z,80
2023-11-09T16:17:51.479Z,80
2023-11-09T16:27:51.717Z,80
2023-11-09T16:37:51.898Z,79
2023-11-09T16:47:52.091Z,79
2023-11-09T17:07:52.535Z,78
2023-11-09T17:17:52.750Z,78
2023-11-09T17:27:52.888Z,77
2023-11-09T17:37:53.132Z,79
2023-11-09T17:57:53.517Z,79
2023-11-09T18:07:53.689Z,80
2023-11-09T18:17:53.934Z,79
2023-11-09T18:27:54.108Z,79
2023-11-09T18:37:54.372Z,81
2023-11-09T18:47:54.550Z,82
2023-11-09T18:57:54.724Z,84
2023-11-09T19:07:54.922Z,85
2023-11-09T19:17:55.130Z,83
2023-11-09T19:27:55.342Z,86
2023-11-09T19:37:55.520Z,91
2023-11-09T19:47:55.804Z,93
2023-11-09T19:57:55.947Z,94
2023-11-09T20:17:56.550Z,96
2023-11-09T20:27:56.540Z,96
2023-11-09T20:37:56.736Z,96
2023-11-09T20:47:56.967Z,96
2023-11-09T20:57:57.148Z,96
2023-11-09T21:17:57.652Z,96
2023-11-09T21:27:57.788Z,95
2023-11-09T21:37:57.961Z,95
2023-11-09T21:47:58.203Z,94
2023-11-09T21:57:58.377Z,94
2023-11-09T22:07:58.587Z,94
2023-11-09T22:17:58.814Z,93
2023-11-09T22:27:58.978Z,92
2023-11-09T22:37:59.186Z,92
2023-11-09T22:57:59.598Z,91
2023-11-09T23:07:59.800Z,90
2023-11-09T23:18:00.053Z,91
2023-11-09T23:38:00.402Z,91
2023-11-09T23:58:00.817Z,90
